createdAt,value
2018-08-18T06:13:20.806Z,3.67
2018-08-18T06:15:57.920Z,3.30
2018-08-18T06:18:25.120Z,3.53
2018-08-18T06:20:52.328Z,3.37
2018-08-18T06:23:19.548Z,2.73
2018-08-18T06:25:46.745Z,3.10
2018-08-18T06:28:13.946Z,3.90
2018-08-18T06:30:41.322Z,3.73
2018-08-18T06:33:08.650Z,3.87
2018-08-18T06:35:35.840Z,3.47
2018-08-18T06:38:03.039Z,3.00
2018-08-18T06:40:30.580Z,2.43
2018-08-18T06:42:57.834Z,3.00
2018-08-18T06:45:25.012Z,4.33
2018-08-18T06:47:52.232Z,2.97
2018-08-18T06:50:20.832Z,2.80
2018-08-18T06:52:48.061Z,3.10
2018-08-18T06:55:17.637Z,3.30
2018-08-18T06:57:47.679Z,2.87
2018-08-18T07:00:16.606Z,2.73
2018-08-18T07:02:43.854Z,2.50
2018-08-18T07:05:12.231Z,2.50
2018-08-18T07:07:39.450Z,2.70
2018-08-18T07:10:16.590Z,2.70
2018-08-18T07:12:46.046Z,2.50
2018-08-18T07:15:16.314Z,2.63
2018-08-18T07:17:43.570Z,3.20
2018-08-18T07:20:10.886Z,4.53
2018-08-18T07:22:38.132Z,2.57
2018-08-18T07:25:05.466Z,2.97
2018-08-18T07:27:32.654Z,4.70
2018-08-18T07:29:59.926Z,3.40
2018-08-18T07:32:27.161Z,4.43
2018-08-18T07:34:54.362Z,4.43
2018-08-18T07:37:21.746Z,10.27
2018-08-18T07:39:49.000Z,4.80
2018-08-18T07:42:16.310Z,4.57
2018-08-18T07:44:43.503Z,2.30
2018-08-18T07:47:10.803Z,3.20
2018-08-18T07:49:37.996Z,5.17
2018-08-18T07:52:05.286Z,3.20
2018-08-18T07:54:32.569Z,2.53
2018-08-18T07:56:59.864Z,4.37
2018-08-18T07:59:27.076Z,2.43
2018-08-18T08:01:55.118Z,2.50
2018-08-18T08:04:22.377Z,2.67
2018-08-18T08:06:49.641Z,2.60
2018-08-18T08:09:16.938Z,2.50
2018-08-18T08:11:44.114Z,2.23
2018-08-18T08:14:11.344Z,2.40
2018-08-18T08:16:38.598Z,2.67
2018-08-18T08:19:05.806Z,3.17
2018-08-18T08:21:33.030Z,3.23
2018-08-18T08:24:00.294Z,2.30
2018-08-18T08:26:27.516Z,2.60
2018-08-18T08:28:54.760Z,2.37
2018-08-18T08:31:22.026Z,2.47
2018-08-18T08:33:49.292Z,2.53
2018-08-18T08:36:17.382Z,2.50
2018-08-18T08:38:52.594Z,2.50
2018-08-18T08:41:22.203Z,2.40
2018-08-18T08:43:49.412Z,2.03
2018-08-18T08:46:17.365Z,2.60
2018-08-18T08:48:44.588Z,5.27
2018-08-18T08:51:11.827Z,2.60
2018-08-18T08:53:39.652Z,3.87
2018-08-18T08:56:06.898Z,3.20
2018-08-18T08:58:37.395Z,2.53
2018-08-18T09:01:04.916Z,3.27
2018-08-18T09:03:32.125Z,2.10
2018-08-18T09:05:59.376Z,2.93
2018-08-18T09:08:26.550Z,2.17
2018-08-18T09:10:53.796Z,2.40
2018-08-18T09:13:20.974Z,2.70
2018-08-18T09:15:48.182Z,2.20
2018-08-18T09:18:15.419Z,2.33
2018-08-18T09:20:46.638Z,7.60
2018-08-18T09:23:13.852Z,13.03
2018-08-18T09:25:41.063Z,2.77
2018-08-18T09:28:08.338Z,3.27
2018-08-18T09:30:35.584Z,2.83
2018-08-18T09:33:04.374Z,2.13
2018-08-18T09:35:36.890Z,4.40
2018-08-18T09:38:04.136Z,8.33
2018-08-18T09:40:32.514Z,2.93
2018-08-18T09:43:00.578Z,3.13
2018-08-18T09:45:27.840Z,2.60
2018-08-18T09:47:55.030Z,1.93
2018-08-18T09:50:22.287Z,2.40
2018-08-18T09:52:49.505Z,6.33
2018-08-18T09:55:17.376Z,2.50
2018-08-18T09:57:44.550Z,3.03
2018-08-18T10:00:13.260Z,3.63
2018-08-18T10:02:40.484Z,3.50
2018-08-18T10:05:07.752Z,2.20
2018-08-18T10:07:35.008Z,3.20
2018-08-18T10:10:07.624Z,2.87
2018-08-18T10:12:34.866Z,2.73
2018-08-18T10:15:02.123Z,2.83
2018-08-18T10:17:29.764Z,3.03
2018-08-18T10:19:56.978Z,2.40
2018-08-18T10:22:24.326Z,14.43
2018-08-18T10:24:51.580Z,4.73
2018-08-18T10:27:18.858Z,4.83
2018-08-18T10:29:47.230Z,3.07
2018-08-18T10:32:15.438Z,2.10
2018-08-18T10:34:42.637Z,3.60
2018-08-18T10:37:11.479Z,2.57
2018-08-18T10:39:39.045Z,3.27
2018-08-18T10:42:08.309Z,3.20
2018-08-18T10:44:35.684Z,3.20
2018-08-18T10:47:17.915Z,3.00
2018-08-18T10:49:50.840Z,3.00
2018-08-18T10:52:23.856Z,3.03
2018-08-18T10:54:51.128Z,2.57
2018-08-18T10:57:23.883Z,2.50
2018-08-18T10:59:51.288Z,3.27
2018-08-18T11:02:24.318Z,2.53
2018-08-18T11:04:51.561Z,2.40
2018-08-18T11:07:18.787Z,2.47
2018-08-18T11:09:45.957Z,3.30
2018-08-18T11:12:13.293Z,3.40
2018-08-18T11:14:42.240Z,2.97
2018-08-18T11:17:10.440Z,3.27
2018-08-18T11:19:38.676Z,3.10
2018-08-18T11:22:18.012Z,2.93
2018-08-18T11:24:46.196Z,3.23
2018-08-18T11:27:13.451Z,2.90
2018-08-18T20:05:08.963Z,3.20
2018-08-18T20:07:36.216Z,10.93
2018-08-18T20:10:04.284Z,9.47
2018-08-18T20:12:31.545Z,9.40
2018-08-18T20:14:58.955Z,10.50
2018-08-18T20:17:26.211Z,11.87
2018-08-18T20:19:53.436Z,9.10
2018-08-18T20:22:20.697Z,10.90
2018-08-18T20:24:47.986Z,10.60
2018-08-18T20:27:16.073Z,9.47
2018-08-18T20:29:43.315Z,8.67
2018-08-18T20:32:10.579Z,9.87
2018-08-18T20:34:38.490Z,10.33
2018-08-18T20:37:05.647Z,13.23
2018-08-18T20:39:33.025Z,9.27
2018-08-18T20:42:00.265Z,8.67
2018-08-18T20:44:28.428Z,10.87
2018-08-18T20:46:55.897Z,10.37
2018-08-18T20:49:23.103Z,10.33
2018-08-18T20:51:50.326Z,14.63
2018-08-18T20:54:17.581Z,10.17
2018-08-18T20:56:44.827Z,10.60
2018-08-18T20:59:12.125Z,12.50
2018-08-18T21:01:39.376Z,12.30
2018-08-18T21:04:06.698Z,14.17
2018-08-18T21:06:33.971Z,13.47
2018-08-18T21:09:04.285Z,11.23
2018-08-18T21:11:31.963Z,12.97
2018-08-18T21:13:59.379Z,11.50
2018-08-18T21:16:26.604Z,12.27
2018-08-18T21:18:53.843Z,13.10
2018-08-18T21:21:37.693Z,12.27
2018-08-18T21:24:05.021Z,11.87
2018-08-18T21:26:32.257Z,12.43
2018-08-18T21:28:59.545Z,13.07
2018-08-18T21:31:33.520Z,10.50
2018-08-18T21:34:02.062Z,10.80
2018-08-18T21:36:29.957Z,16.53
2018-08-18T21:38:58.668Z,13.10
2018-08-18T21:41:26.110Z,12.43
2018-08-18T21:43:53.263Z,13.93
2018-08-18T21:46:22.093Z,11.93
2018-08-18T21:48:50.654Z,11.73
2018-08-18T21:51:20.245Z,13.40
2018-08-18T21:53:47.905Z,12.30
2018-08-18T21:56:15.157Z,19.50
2018-08-18T21:58:42.439Z,12.27
2018-08-18T22:01:15.418Z,12.67
2018-08-18T22:03:42.598Z,11.23
2018-08-18T22:06:09.899Z,12.33
2018-08-18T22:08:37.146Z,11.73
2018-08-18T22:11:04.493Z,13.47
2018-08-18T22:13:40.885Z,12.77
2018-08-18T22:16:08.317Z,12.30
2018-08-18T22:18:35.531Z,12.03
2018-08-18T22:21:02.787Z,12.27
2018-08-18T22:23:30.094Z,12.80
2018-08-18T22:25:57.344Z,14.43
2018-08-18T22:28:24.544Z,14.03
2018-08-18T22:30:53.800Z,13.73
2018-08-18T22:33:21.843Z,15.80
2018-08-18T22:35:50.049Z,12.90
2018-08-18T22:38:17.261Z,12.53
2018-08-18T22:40:44.463Z,12.00
2018-08-18T22:43:12.179Z,11.80
2018-08-18T22:45:46.118Z,13.17
2018-08-18T22:48:14.007Z,12.17
2018-08-18T22:50:41.377Z,13.47
2018-08-18T22:53:08.634Z,12.07
2018-08-18T22:55:35.864Z,12.27
2018-08-18T22:58:03.063Z,13.00
2018-08-18T23:00:33.217Z,12.03
2018-08-18T23:03:00.623Z,11.37
2018-08-18T23:05:27.883Z,11.20
2018-08-18T23:07:56.379Z,10.53
2018-08-18T23:10:27.471Z,12.97
2018-08-18T23:12:54.663Z,11.80
2018-08-18T23:15:21.923Z,11.23
2018-08-18T23:17:49.121Z,10.70
2018-08-18T23:20:16.436Z,10.90
2018-08-18T23:22:52.541Z,10.47
2018-08-18T23:25:19.859Z,12.43
2018-08-18T23:27:47.120Z,12.00
2018-08-18T23:30:15.793Z,10.27
2018-08-18T23:32:43.065Z,12.13
2018-08-18T23:35:10.357Z,9.90
2018-08-18T23:37:37.637Z,10.07
2018-08-18T23:40:04.830Z,9.90
2018-08-18T23:42:32.085Z,9.33
2018-08-18T23:44:59.271Z,9.17
2018-08-18T23:47:26.466Z,9.97
2018-08-18T23:49:53.758Z,10.57
2018-08-18T23:52:21.608Z,11.57
2018-08-18T23:54:48.875Z,9.87
2018-08-18T23:57:17.297Z,9.47
2018-08-18T23:59:44.663Z,9.67
